sensor_id;sensor_type;location;lat;lon;timestamp;temperature;humidity
53800;DHT22;39708;53.210;6.948;2022-09-28T00:02:03;6.80;99.90
53800;DHT22;39708;53.210;6.948;2022-09-28T00:04:29;6.80;99.90
53800;DHT22;39708;53.210;6.948;2022-09-28T00:06:54;6.80;99.90
53800;DHT22;39708;53.210;6.948;2022-09-28T00:09:20;6.80;99.90
53800;DHT22;39708;53.210;6.948;2022-09-28T00:11:46;6.80;99.90
53800;DHT22;39708;53.210;6.948;2022-09-28T00:14:12;6.70;99.90
53800;DHT22;39708;53.210;6.948;2022-09-28T00:16:41;6.60;99.90
53800;DHT22;39708;53.210;6.948;2022-09-28T00:19:08;6.60;99.90
53800;DHT22;39708;53.210;6.948;2022-09-28T00:21:36;6.60;99.90
53800;DHT22;39708;53.210;6.948;2022-09-28T00:24:04;6.50;99.90
53800;DHT22;39708;53.210;6.948;2022-09-28T00:26:54;6.50;99.90
53800;DHT22;39708;53.210;6.948;2022-09-28T00:29:25;6.50;99.90
53800;DHT22;39708;53.210;6.948;2022-09-28T00:32:02;6.40;99.90
53800;DHT22;39708;53.210;6.948;2022-09-28T00:34:31;6.40;99.90
53800;DHT22;39708;53.210;6.948;2022-09-28T00:36:57;6.40;99.90
53800;DHT22;39708;53.210;6.948;2022-09-28T00:39:23;6.40;99.90
53800;DHT22;39708;53.210;6.948;2022-09-28T00:41:49;6.30;99.90
53800;DHT22;39708;53.210;6.948;2022-09-28T00:46:48;6.30;99.90
53800;DHT22;39708;53.210;6.948;2022-09-28T00:49:17;6.30;99.90
53800;DHT22;39708;53.210;6.948;2022-09-28T00:51:45;6.30;99.90
53800;DHT22;39708;53.210;6.948;2022-09-28T00:54:11;6.20;99.90
53800;DHT22;39708;53.210;6.948;2022-09-28T00:56:41;6.20;99.90
53800;DHT22;39708;53.210;6.948;2022-09-28T00:59:08;6.10;99.90
53800;DHT22;39708;53.210;6.948;2022-09-28T01:01:35;6.10;99.90
53800;DHT22;39708;53.210;6.948;2022-09-28T01:04:01;6.10;99.90
53800;DHT22;39708;53.210;6.948;2022-09-28T01:06:31;6.10;99.90
53800;DHT22;39708;53.210;6.948;2022-09-28T01:09:00;6.10;99.90
53800;DHT22;39708;53.210;6.948;2022-09-28T01:11:30;6.00;99.90
53800;DHT22;39708;53.210;6.948;2022-09-28T01:13:56;6.00;99.90
53800;DHT22;39708;53.210;6.948;2022-09-28T01:20:05;5.90;99.90
53800;DHT22;39708;53.210;6.948;2022-09-28T01:22:59;5.90;99.90
53800;DHT22;39708;53.210;6.948;2022-09-28T01:25:49;5.90;99.90
53800;DHT22;39708;53.210;6.948;2022-09-28T01:28:18;5.90;99.90
53800;DHT22;39708;53.210;6.948;2022-09-28T01:30:57;5.90;99.90
53800;DHT22;39708;53.210;6.948;2022-09-28T01:33:30;5.90;99.90
53800;DHT22;39708;53.210;6.948;2022-09-28T01:38:38;5.80;99.90
53800;DHT22;39708;53.210;6.948;2022-09-28T01:41:06;5.80;99.90
53800;DHT22;39708;53.210;6.948;2022-09-28T01:43:38;5.80;99.90
53800;DHT22;39708;53.210;6.948;2022-09-28T01:46:13;5.70;99.90
53800;DHT22;39708;53.210;6.948;2022-09-28T01:48:55;5.70;99.90
53800;DHT22;39708;53.210;6.948;2022-09-28T01:51:46;5.80;99.90
53800;DHT22;39708;53.210;6.948;2022-09-28T01:54:20;5.70;99.90
53800;DHT22;39708;53.210;6.948;2022-09-28T01:56:56;5.80;99.90
53800;DHT22;39708;53.210;6.948;2022-09-28T01:59:27;5.60;99.90
53800;DHT22;39708;53.210;6.948;2022-09-28T02:02:04;5.60;99.90
53800;DHT22;39708;53.210;6.948;2022-09-28T02:04:53;5.70;99.90
53800;DHT22;39708;53.210;6.948;2022-09-28T02:07:25;5.70;99.90
53800;DHT22;39708;53.210;6.948;2022-09-28T02:09:56;5.60;99.90
53800;DHT22;39708;53.210;6.948;2022-09-28T02:12:40;5.60;99.90
53800;DHT22;39708;53.210;6.948;2022-09-28T02:15:19;5.90;99.90
53800;DHT22;39708;53.210;6.948;2022-09-28T02:17:48;5.50;99.90
53800;DHT22;39708;53.210;6.948;2022-09-28T02:20:14;5.50;99.90
53800;DHT22;39708;53.210;6.948;2022-09-28T02:23:00;5.40;99.90
53800;DHT22;39708;53.210;6.948;2022-09-28T02:25:41;5.40;99.90
53800;DHT22;39708;53.210;6.948;2022-09-28T02:28:11;5.40;99.90
53800;DHT22;39708;53.210;6.948;2022-09-28T02:30:39;5.40;99.90
53800;DHT22;39708;53.210;6.948;2022-09-28T02:35:41;5.30;99.90
53800;DHT22;39708;53.210;6.948;2022-09-28T02:38:09;5.80;99.90
53800;DHT22;39708;53.210;6.948;2022-09-28T02:40:35;5.30;99.90
53800;DHT22;39708;53.210;6.948;2022-09-28T02:46:00;5.30;99.90
53800;DHT22;39708;53.210;6.948;2022-09-28T02:53:48;5.30;99.90
53800;DHT22;39708;53.210;6.948;2022-09-28T03:07:18;5.20;99.90
53800;DHT22;39708;53.210;6.948;2022-09-28T03:09:53;5.20;99.90
53800;DHT22;39708;53.210;6.948;2022-09-28T03:12:21;5.20;99.90
53800;DHT22;39708;53.210;6.948;2022-09-28T03:15:09;5.10;99.90
53800;DHT22;39708;53.210;6.948;2022-09-28T03:17:35;5.10;99.90
53800;DHT22;39708;53.210;6.948;2022-09-28T03:20:02;5.10;99.90
53800;DHT22;39708;53.210;6.948;2022-09-28T03:22:27;5.10;99.90
53800;DHT22;39708;53.210;6.948;2022-09-28T03:24:53;5.80;99.90
53800;DHT22;39708;53.210;6.948;2022-09-28T03:27:19;5.10;99.90
53800;DHT22;39708;53.210;6.948;2022-09-28T03:29:45;5.20;99.90
53800;DHT22;39708;53.210;6.948;2022-09-28T03:32:10;5.20;99.90
53800;DHT22;39708;53.210;6.948;2022-09-28T03:34:36;5.20;99.90
53800;DHT22;39708;53.210;6.948;2022-09-28T03:37:02;5.20;99.90
53800;DHT22;39708;53.210;6.948;2022-09-28T03:39:27;5.30;99.90
53800;DHT22;39708;53.210;6.948;2022-09-28T03:41:53;5.30;99.90
53800;DHT22;39708;53.210;6.948;2022-09-28T03:44:19;5.30;99.90
53800;DHT22;39708;53.210;6.948;2022-09-28T03:46:45;5.40;99.90
53800;DHT22;39708;53.210;6.948;2022-09-28T03:49:11;5.40;99.90
53800;DHT22;39708;53.210;6.948;2022-09-28T03:51:36;5.40;99.90
53800;DHT22;39708;53.210;6.948;2022-09-28T03:54:02;5.20;99.90
53800;DHT22;39708;53.210;6.948;2022-09-28T03:56:28;5.50;99.90
53800;DHT22;39708;53.210;6.948;2022-09-28T03:58:54;5.50;99.90
53800;DHT22;39708;53.210;6.948;2022-09-28T04:01:19;5.50;99.90
53800;DHT22;39708;53.210;6.948;2022-09-28T04:03:45;5.50;99.90
53800;DHT22;39708;53.210;6.948;2022-09-28T04:06:12;6.80;99.90
53800;DHT22;39708;53.210;6.948;2022-09-28T04:08:38;5.50;99.90
53800;DHT22;39708;53.210;6.948;2022-09-28T04:11:04;5.70;99.90
53800;DHT22;39708;53.210;6.948;2022-09-28T04:13:30;5.50;99.90
53800;DHT22;39708;53.210;6.948;2022-09-28T04:15:57;5.50;99.90
53800;DHT22;39708;53.210;6.948;2022-09-28T04:18:23;5.40;99.90
53800;DHT22;39708;53.210;6.948;2022-09-28T04:21:04;5.30;99.90
53800;DHT22;39708;53.210;6.948;2022-09-28T04:23:34;5.30;99.90
53800;DHT22;39708;53.210;6.948;2022-09-28T04:26:01;5.30;99.90
53800;DHT22;39708;53.210;6.948;2022-09-28T04:28:27;5.20;99.90
53800;DHT22;39708;53.210;6.948;2022-09-28T04:31:15;5.20;99.90
53800;DHT22;39708;53.210;6.948;2022-09-28T04:33:41;5.20;99.90
53800;DHT22;39708;53.210;6.948;2022-09-28T04:36:07;5.10;99.90
53800;DHT22;39708;53.210;6.948;2022-09-28T04:38:34;5.10;99.90
53800;DHT22;39708;53.210;6.948;2022-09-28T04:40:59;5.20;99.90
53800;DHT22;39708;53.210;6.948;2022-09-28T04:43:25;5.20;99.90
53800;DHT22;39708;53.210;6.948;2022-09-28T04:45:56;4.90;99.90
53800;DHT22;39708;53.210;6.948;2022-09-28T04:48:21;5.20;99.90
53800;DHT22;39708;53.210;6.948;2022-09-28T04:50:58;5.20;99.90
53800;DHT22;39708;53.210;6.948;2022-09-28T04:53:25;5.10;99.90
53800;DHT22;39708;53.210;6.948;2022-09-28T04:56:11;5.20;99.90
53800;DHT22;39708;53.210;6.948;2022-09-28T04:58:38;5.20;99.90
53800;DHT22;39708;53.210;6.948;2022-09-28T05:01:06;5.20;99.90
53800;DHT22;39708;53.210;6.948;2022-09-28T05:03:32;5.20;99.90
53800;DHT22;39708;53.210;6.948;2022-09-28T05:05:59;4.90;99.90
53800;DHT22;39708;53.210;6.948;2022-09-28T05:08:25;4.80;99.90
53800;DHT22;39708;53.210;6.948;2022-09-28T05:11:03;4.00;99.90
53800;DHT22;39708;53.210;6.948;2022-09-28T05:13:30;4.80;99.90
53800;DHT22;39708;53.210;6.948;2022-09-28T05:15:57;4.40;99.90
53800;DHT22;39708;53.210;6.948;2022-09-28T05:18:23;3.40;99.90
53800;DHT22;39708;53.210;6.948;2022-09-28T05:20:49;3.00;99.90
53800;DHT22;39708;53.210;6.948;2022-09-28T05:23:15;2.90;99.90
53800;DHT22;39708;53.210;6.948;2022-09-28T05:25:42;3.00;99.90
53800;DHT22;39708;53.210;6.948;2022-09-28T05:28:08;3.10;99.90
53800;DHT22;39708;53.210;6.948;2022-09-28T05:30:34;3.00;99.90
53800;DHT22;39708;53.210;6.948;2022-09-28T05:33:01;3.00;99.90
53800;DHT22;39708;53.210;6.948;2022-09-28T05:35:27;3.00;99.90
53800;DHT22;39708;53.210;6.948;2022-09-28T05:37:54;3.00;99.90
53800;DHT22;39708;53.210;6.948;2022-09-28T05:40:20;3.00;99.90
53800;DHT22;39708;53.210;6.948;2022-09-28T05:42:45;3.00;99.90
53800;DHT22;39708;53.210;6.948;2022-09-28T05:45:11;3.00;99.90
53800;DHT22;39708;53.210;6.948;2022-09-28T05:47:40;3.10;99.90
53800;DHT22;39708;53.210;6.948;2022-09-28T05:50:07;3.10;99.90
53800;DHT22;39708;53.210;6.948;2022-09-28T05:52:33;3.10;99.90
53800;DHT22;39708;53.210;6.948;2022-09-28T05:54:59;2.20;99.90
53800;DHT22;39708;53.210;6.948;2022-09-28T05:57:26;3.10;99.90
53800;DHT22;39708;53.210;6.948;2022-09-28T05:59:52;3.00;99.90
53800;DHT22;39708;53.210;6.948;2022-09-28T06:02:17;2.90;99.90
53800;DHT22;39708;53.210;6.948;2022-09-28T06:04:43;3.00;99.90
53800;DHT22;39708;53.210;6.948;2022-09-28T06:07:08;3.00;99.90
53800;DHT22;39708;53.210;6.948;2022-09-28T06:09:34;3.10;99.90
53800;DHT22;39708;53.210;6.948;2022-09-28T06:12:00;3.10;99.90
53800;DHT22;39708;53.210;6.948;2022-09-28T06:14:25;3.10;99.90
53800;DHT22;39708;53.210;6.948;2022-09-28T06:16:51;3.20;99.90
53800;DHT22;39708;53.210;6.948;2022-09-28T06:19:17;3.00;99.90
53800;DHT22;39708;53.210;6.948;2022-09-28T06:21:43;3.00;99.90
53800;DHT22;39708;53.210;6.948;2022-09-28T06:24:08;3.10;99.90
53800;DHT22;39708;53.210;6.948;2022-09-28T06:26:34;3.10;99.90
53800;DHT22;39708;53.210;6.948;2022-09-28T06:29:00;3.20;99.90
53800;DHT22;39708;53.210;6.948;2022-09-28T06:31:26;3.10;99.90
53800;DHT22;39708;53.210;6.948;2022-09-28T06:33:54;3.20;99.90
53800;DHT22;39708;53.210;6.948;2022-09-28T06:36:20;3.20;99.90
53800;DHT22;39708;53.210;6.948;2022-09-28T06:38:46;3.20;99.90
53800;DHT22;39708;53.210;6.948;2022-09-28T06:41:12;3.30;99.90
53800;DHT22;39708;53.210;6.948;2022-09-28T06:43:38;3.10;99.90
53800;DHT22;39708;53.210;6.948;2022-09-28T06:46:04;3.30;99.90
53800;DHT22;39708;53.210;6.948;2022-09-28T06:48:31;3.30;99.90
53800;DHT22;39708;53.210;6.948;2022-09-28T06:50:58;3.30;99.90
53800;DHT22;39708;53.210;6.948;2022-09-28T06:53:23;3.40;99.90
53800;DHT22;39708;53.210;6.948;2022-09-28T06:55:49;3.40;99.90
53800;DHT22;39708;53.210;6.948;2022-09-28T06:58:17;3.40;99.90
53800;DHT22;39708;53.210;6.948;2022-09-28T07:00:44;3.90;99.90
53800;DHT22;39708;53.210;6.948;2022-09-28T07:03:12;3.40;99.90
53800;DHT22;39708;53.210;6.948;2022-09-28T07:05:43;3.40;99.90
53800;DHT22;39708;53.210;6.948;2022-09-28T07:08:10;3.40;99.90
53800;DHT22;39708;53.210;6.948;2022-09-28T07:10:44;3.30;99.90
53800;DHT22;39708;53.210;6.948;2022-09-28T07:13:11;3.30;99.90
53800;DHT22;39708;53.210;6.948;2022-09-28T07:15:38;3.40;99.90
53800;DHT22;39708;53.210;6.948;2022-09-28T07:18:05;3.30;99.90
53800;DHT22;39708;53.210;6.948;2022-09-28T07:20:33;3.30;99.90
53800;DHT22;39708;53.210;6.948;2022-09-28T07:23:02;3.30;99.90
53800;DHT22;39708;53.210;6.948;2022-09-28T07:25:28;3.30;99.90
53800;DHT22;39708;53.210;6.948;2022-09-28T07:27:57;3.50;99.90
53800;DHT22;39708;53.210;6.948;2022-09-28T07:30:25;3.50;99.90
53800;DHT22;39708;53.210;6.948;2022-09-28T07:32:52;3.30;99.90
53800;DHT22;39708;53.210;6.948;2022-09-28T07:35:18;3.20;99.90
53800;DHT22;39708;53.210;6.948;2022-09-28T07:37:43;3.30;99.90
53800;DHT22;39708;53.210;6.948;2022-09-28T07:40:09;3.30;99.90
53800;DHT22;39708;53.210;6.948;2022-09-28T07:42:54;3.40;99.90
53800;DHT22;39708;53.210;6.948;2022-09-28T07:45:20;3.70;99.90
53800;DHT22;39708;53.210;6.948;2022-09-28T07:47:48;3.50;99.90
53800;DHT22;39708;53.210;6.948;2022-09-28T07:50:14;3.50;99.90
53800;DHT22;39708;53.210;6.948;2022-09-28T07:52:40;3.70;99.90
53800;DHT22;39708;53.210;6.948;2022-09-28T07:55:07;4.40;99.90
53800;DHT22;39708;53.210;6.948;2022-09-28T07:57:33;3.80;99.90
53800;DHT22;39708;53.210;6.948;2022-09-28T07:59:59;4.40;99.90
53800;DHT22;39708;53.210;6.948;2022-09-28T08:02:27;4.60;99.90
53800;DHT22;39708;53.210;6.948;2022-09-28T08:04:54;4.90;99.90
53800;DHT22;39708;53.210;6.948;2022-09-28T08:07:20;5.10;99.90
53800;DHT22;39708;53.210;6.948;2022-09-28T08:09:47;5.30;99.90
53800;DHT22;39708;53.210;6.948;2022-09-28T08:12:13;5.50;99.90
53800;DHT22;39708;53.210;6.948;2022-09-28T08:14:39;5.60;99.90
53800;DHT22;39708;53.210;6.948;2022-09-28T08:17:06;5.70;99.90
53800;DHT22;39708;53.210;6.948;2022-09-28T08:19:32;5.70;99.90
53800;DHT22;39708;53.210;6.948;2022-09-28T08:22:18;5.70;99.90
53800;DHT22;39708;53.210;6.948;2022-09-28T08:24:45;5.80;99.90
53800;DHT22;39708;53.210;6.948;2022-09-28T08:27:11;5.90;99.90
53800;DHT22;39708;53.210;6.948;2022-09-28T08:29:37;6.00;99.90
53800;DHT22;39708;53.210;6.948;2022-09-28T08:32:04;6.10;99.90
53800;DHT22;39708;53.210;6.948;2022-09-28T08:34:36;6.30;99.90
53800;DHT22;39708;53.210;6.948;2022-09-28T08:37:03;6.30;99.90
53800;DHT22;39708;53.210;6.948;2022-09-28T08:39:29;6.40;99.90
53800;DHT22;39708;53.210;6.948;2022-09-28T08:42:25;6.90;99.90
53800;DHT22;39708;53.210;6.948;2022-09-28T08:44:58;6.70;99.90
53800;DHT22;39708;53.210;6.948;2022-09-28T08:47:30;6.90;99.90
53800;DHT22;39708;53.210;6.948;2022-09-28T08:50:22;7.00;99.90
53800;DHT22;39708;53.210;6.948;2022-09-28T08:52:56;7.20;99.90
53800;DHT22;39708;53.210;6.948;2022-09-28T08:55:31;7.20;99.90
53800;DHT22;39708;53.210;6.948;2022-09-28T09:00:44;7.40;99.90
53800;DHT22;39708;53.210;6.948;2022-09-28T09:03:32;7.60;99.90
53800;DHT22;39708;53.210;6.948;2022-09-28T09:11:56;7.70;99.90
53800;DHT22;39708;53.210;6.948;2022-09-28T09:17:46;7.90;99.90
53800;DHT22;39708;53.210;6.948;2022-09-28T09:20:18;8.10;99.90
53800;DHT22;39708;53.210;6.948;2022-09-28T09:23:04;8.20;99.90
53800;DHT22;39708;53.210;6.948;2022-09-28T09:25:41;8.30;99.90
53800;DHT22;39708;53.210;6.948;2022-09-28T09:31:18;8.30;99.90
53800;DHT22;39708;53.210;6.948;2022-09-28T09:37:07;8.50;99.90
53800;DHT22;39708;53.210;6.948;2022-09-28T09:45:40;8.90;99.90
53800;DHT22;39708;53.210;6.948;2022-09-28T09:50:59;9.00;99.90
53800;DHT22;39708;53.210;6.948;2022-09-28T09:53:35;9.00;99.90
53800;DHT22;39708;53.210;6.948;2022-09-28T09:56:21;9.10;99.90
53800;DHT22;39708;53.210;6.948;2022-09-28T09:58:56;9.00;99.90
53800;DHT22;39708;53.210;6.948;2022-09-28T10:01:36;9.10;99.90
53800;DHT22;39708;53.210;6.948;2022-09-28T10:04:06;9.10;99.90
53800;DHT22;39708;53.210;6.948;2022-09-28T10:06:35;9.20;99.90
53800;DHT22;39708;53.210;6.948;2022-09-28T10:09:10;9.30;99.90
53800;DHT22;39708;53.210;6.948;2022-09-28T10:11:45;9.60;99.90
53800;DHT22;39708;53.210;6.948;2022-09-28T10:14:16;10.50;99.90
53800;DHT22;39708;53.210;6.948;2022-09-28T10:16:43;10.80;99.90
53800;DHT22;39708;53.210;6.948;2022-09-28T10:19:12;11.20;99.90
53800;DHT22;39708;53.210;6.948;2022-09-28T10:21:39;11.10;99.90
53800;DHT22;39708;53.210;6.948;2022-09-28T10:24:15;10.90;99.90
53800;DHT22;39708;53.210;6.948;2022-09-28T10:26:45;10.90;99.90
53800;DHT22;39708;53.210;6.948;2022-09-28T10:29:19;10.80;99.90
53800;DHT22;39708;53.210;6.948;2022-09-28T10:31:46;10.90;99.90
53800;DHT22;39708;53.210;6.948;2022-09-28T10:34:15;10.80;99.90
53800;DHT22;39708;53.210;6.948;2022-09-28T10:39:51;11.00;99.90
53800;DHT22;39708;53.210;6.948;2022-09-28T10:42:29;11.10;99.90
53800;DHT22;39708;53.210;6.948;2022-09-28T10:44:59;11.00;99.90
53800;DHT22;39708;53.210;6.948;2022-09-28T10:47:28;10.80;99.90
53800;DHT22;39708;53.210;6.948;2022-09-28T10:49:55;10.70;99.90
53800;DHT22;39708;53.210;6.948;2022-09-28T10:52:41;10.90;99.90
53800;DHT22;39708;53.210;6.948;2022-09-28T10:55:28;11.10;99.90
53800;DHT22;39708;53.210;6.948;2022-09-28T10:57:55;10.90;99.90
53800;DHT22;39708;53.210;6.948;2022-09-28T11:00:40;11.00;99.90
53800;DHT22;39708;53.210;6.948;2022-09-28T11:03:17;11.10;99.90
53800;DHT22;39708;53.210;6.948;2022-09-28T11:06:01;11.00;99.90
53800;DHT22;39708;53.210;6.948;2022-09-28T11:08:35;11.00;99.90
53800;DHT22;39708;53.210;6.948;2022-09-28T11:18:47;11.40;99.90
53800;DHT22;39708;53.210;6.948;2022-09-28T11:21:22;11.60;99.90
53800;DHT22;39708;53.210;6.948;2022-09-28T11:24:09;11.70;99.90
53800;DHT22;39708;53.210;6.948;2022-09-28T11:26:44;11.80;99.90
53800;DHT22;39708;53.210;6.948;2022-09-28T11:29:40;11.80;99.90
53800;DHT22;39708;53.210;6.948;2022-09-28T11:32:07;12.00;99.90
53800;DHT22;39708;53.210;6.948;2022-09-28T11:34:42;12.00;99.90
53800;DHT22;39708;53.210;6.948;2022-09-28T11:48:07;12.40;99.90
53800;DHT22;39708;53.210;6.948;2022-09-28T11:55:56;12.70;99.90
53800;DHT22;39708;53.210;6.948;2022-09-28T12:01:18;12.90;99.90
53800;DHT22;39708;53.210;6.948;2022-09-28T12:03:52;12.90;99.90
53800;DHT22;39708;53.210;6.948;2022-09-28T12:06:24;13.00;99.90
53800;DHT22;39708;53.210;6.948;2022-09-28T12:08:56;13.10;99.90
53800;DHT22;39708;53.210;6.948;2022-09-28T12:11:34;13.10;99.90
53800;DHT22;39708;53.210;6.948;2022-09-28T12:14:02;13.30;99.90
53800;DHT22;39708;53.210;6.948;2022-09-28T12:16:40;13.40;99.90
53800;DHT22;39708;53.210;6.948;2022-09-28T12:19:16;13.40;99.90
53800;DHT22;39708;53.210;6.948;2022-09-28T12:21:47;13.50;99.90
53800;DHT22;39708;53.210;6.948;2022-09-28T12:34:57;13.90;99.90
53800;DHT22;39708;53.210;6.948;2022-09-28T12:45:55;14.40;99.90
53800;DHT22;39708;53.210;6.948;2022-09-28T12:51:01;14.70;99.90
53800;DHT22;39708;53.210;6.948;2022-09-28T12:56:48;14.80;99.90
53800;DHT22;39708;53.210;6.948;2022-09-28T12:59:31;14.60;99.90
53800;DHT22;39708;53.210;6.948;2022-09-28T13:07:41;14.00;99.90
53800;DHT22;39708;53.210;6.948;2022-09-28T13:13:22;13.60;99.90
53800;DHT22;39708;53.210;6.948;2022-09-28T13:18:32;13.60;99.90
53800;DHT22;39708;53.210;6.948;2022-09-28T13:21:12;13.60;99.90
53800;DHT22;39708;53.210;6.948;2022-09-28T13:23:43;13.70;99.90
53800;DHT22;39708;53.210;6.948;2022-09-28T13:26:43;14.00;99.90
53800;DHT22;39708;53.210;6.948;2022-09-28T13:29:12;13.90;99.90
53800;DHT22;39708;53.210;6.948;2022-09-28T13:31:45;14.00;99.90
53800;DHT22;39708;53.210;6.948;2022-09-28T13:34:18;14.00;99.90
53800;DHT22;39708;53.210;6.948;2022-09-28T13:39:37;13.80;99.90
53800;DHT22;39708;53.210;6.948;2022-09-28T13:48:14;13.50;99.90
53800;DHT22;39708;53.210;6.948;2022-09-28T13:56:46;13.10;99.90
53800;DHT22;39708;53.210;6.948;2022-09-28T13:59:22;13.00;99.90
53800;DHT22;39708;53.210;6.948;2022-09-28T14:08:17;12.50;99.90
53800;DHT22;39708;53.210;6.948;2022-09-28T14:10:55;12.50;99.90
53800;DHT22;39708;53.210;6.948;2022-09-28T14:16:32;12.20;99.90
53800;DHT22;39708;53.210;6.948;2022-09-28T14:19:03;12.10;99.90
53800;DHT22;39708;53.210;6.948;2022-09-28T14:21:56;12.10;99.90
53800;DHT22;39708;53.210;6.948;2022-09-28T14:32:37;12.00;99.90
53800;DHT22;39708;53.210;6.948;2022-09-28T14:35:06;12.00;99.90
53800;DHT22;39708;53.210;6.948;2022-09-28T14:37:37;12.10;99.90
53800;DHT22;39708;53.210;6.948;2022-09-28T14:40:25;12.20;99.90
53800;DHT22;39708;53.210;6.948;2022-09-28T14:59:06;12.80;99.90
53800;DHT22;39708;53.210;6.948;2022-09-28T15:01:34;12.90;99.90
53800;DHT22;39708;53.210;6.948;2022-09-28T15:04:02;12.80;99.90
53800;DHT22;39708;53.210;6.948;2022-09-28T15:06:48;12.80;99.90
53800;DHT22;39708;53.210;6.948;2022-09-28T15:09:31;12.90;99.90
53800;DHT22;39708;53.210;6.948;2022-09-28T15:12:16;12.90;99.90
53800;DHT22;39708;53.210;6.948;2022-09-28T15:14:57;12.80;99.90
53800;DHT22;39708;53.210;6.948;2022-09-28T15:17:32;12.70;99.90
53800;DHT22;39708;53.210;6.948;2022-09-28T15:22:49;12.60;99.90
53800;DHT22;39708;53.210;6.948;2022-09-28T15:25:20;12.50;99.90
53800;DHT22;39708;53.210;6.948;2022-09-28T15:27:51;12.40;99.90
53800;DHT22;39708;53.210;6.948;2022-09-28T15:32:54;12.10;99.90
53800;DHT22;39708;53.210;6.948;2022-09-28T15:35:26;12.00;99.90
53800;DHT22;39708;53.210;6.948;2022-09-28T15:37:53;11.90;99.90
53800;DHT22;39708;53.210;6.948;2022-09-28T15:40:31;11.70;99.90
53800;DHT22;39708;53.210;6.948;2022-09-28T15:42:58;11.70;99.90
53800;DHT22;39708;53.210;6.948;2022-09-28T15:45:27;11.50;99.90
53800;DHT22;39708;53.210;6.948;2022-09-28T15:51:07;10.50;99.90
53800;DHT22;39708;53.210;6.948;2022-09-28T15:59:35;9.80;99.90
53800;DHT22;39708;53.210;6.948;2022-09-28T16:15:31;9.90;99.90
53800;DHT22;39708;53.210;6.948;2022-09-28T16:18:13;9.90;99.90
53800;DHT22;39708;53.210;6.948;2022-09-28T16:20:46;9.90;99.90
53800;DHT22;39708;53.210;6.948;2022-09-28T16:31:32;10.10;99.90
53800;DHT22;39708;53.210;6.948;2022-09-28T16:34:07;10.20;99.90
53800;DHT22;39708;53.210;6.948;2022-09-28T16:36:44;10.30;99.90
53800;DHT22;39708;53.210;6.948;2022-09-28T16:39:14;10.30;99.90
53800;DHT22;39708;53.210;6.948;2022-09-28T16:41:44;10.30;99.90
53800;DHT22;39708;53.210;6.948;2022-09-28T16:44:15;10.20;99.90
53800;DHT22;39708;53.210;6.948;2022-09-28T16:46:43;10.30;99.90
53800;DHT22;39708;53.210;6.948;2022-09-28T16:49:12;10.40;99.90
53800;DHT22;39708;53.210;6.948;2022-09-28T16:51:40;10.40;99.90
53800;DHT22;39708;53.210;6.948;2022-09-28T16:54:13;10.40;99.90
53800;DHT22;39708;53.210;6.948;2022-09-28T16:56:58;10.40;99.90
53800;DHT22;39708;53.210;6.948;2022-09-28T16:59:24;10.40;99.90
53800;DHT22;39708;53.210;6.948;2022-09-28T17:01:50;10.40;99.90
53800;DHT22;39708;53.210;6.948;2022-09-28T17:04:16;10.30;99.90
53800;DHT22;39708;53.210;6.948;2022-09-28T17:06:41;10.20;99.90
53800;DHT22;39708;53.210;6.948;2022-09-28T17:09:11;10.10;99.90
53800;DHT22;39708;53.210;6.948;2022-09-28T17:11:37;10.10;99.90
53800;DHT22;39708;53.210;6.948;2022-09-28T17:14:02;10.00;99.90
53800;DHT22;39708;53.210;6.948;2022-09-28T17:16:31;10.20;99.90
53800;DHT22;39708;53.210;6.948;2022-09-28T17:18:58;10.10;99.90
53800;DHT22;39708;53.210;6.948;2022-09-28T17:21:24;10.00;99.90
53800;DHT22;39708;53.210;6.948;2022-09-28T17:23:50;9.90;99.90
53800;DHT22;39708;53.210;6.948;2022-09-28T17:26:25;9.90;99.90
53800;DHT22;39708;53.210;6.948;2022-09-28T17:28:57;9.90;99.90
53800;DHT22;39708;53.210;6.948;2022-09-28T17:31:24;9.90;99.90
53800;DHT22;39708;53.210;6.948;2022-09-28T17:33:49;9.90;99.90
53800;DHT22;39708;53.210;6.948;2022-09-28T17:36:17;9.90;99.90
53800;DHT22;39708;53.210;6.948;2022-09-28T17:38:44;9.80;99.90
53800;DHT22;39708;53.210;6.948;2022-09-28T17:41:11;9.70;99.90
53800;DHT22;39708;53.210;6.948;2022-09-28T17:43:37;9.60;99.90
53800;DHT22;39708;53.210;6.948;2022-09-28T17:48:41;9.40;99.90
53800;DHT22;39708;53.210;6.948;2022-09-28T17:51:11;9.30;99.90
53800;DHT22;39708;53.210;6.948;2022-09-28T17:53:37;9.20;99.90
53800;DHT22;39708;53.210;6.948;2022-09-28T17:56:03;9.20;99.90
53800;DHT22;39708;53.210;6.948;2022-09-28T17:58:28;9.10;99.90
53800;DHT22;39708;53.210;6.948;2022-09-28T18:00:54;9.10;99.90
53800;DHT22;39708;53.210;6.948;2022-09-28T18:03:24;9.00;99.90
53800;DHT22;39708;53.210;6.948;2022-09-28T18:06:07;9.00;99.90
53800;DHT22;39708;53.210;6.948;2022-09-28T18:08:37;9.00;99.90
53800;DHT22;39708;53.210;6.948;2022-09-28T18:11:03;9.20;99.90
53800;DHT22;39708;53.210;6.948;2022-09-28T18:13:29;9.00;99.90
53800;DHT22;39708;53.210;6.948;2022-09-28T18:15:55;8.90;99.90
53800;DHT22;39708;53.210;6.948;2022-09-28T18:18:22;8.90;99.90
53800;DHT22;39708;53.210;6.948;2022-09-28T18:20:49;9.00;99.90
53800;DHT22;39708;53.210;6.948;2022-09-28T18:23:42;9.00;99.90
53800;DHT22;39708;53.210;6.948;2022-09-28T18:26:14;9.10;99.90
53800;DHT22;39708;53.210;6.948;2022-09-28T18:28:40;9.10;99.90
53800;DHT22;39708;53.210;6.948;2022-09-28T18:31:07;9.10;99.90
53800;DHT22;39708;53.210;6.948;2022-09-28T18:33:34;9.00;99.90
53800;DHT22;39708;53.210;6.948;2022-09-28T18:36:00;9.00;99.90
53800;DHT22;39708;53.210;6.948;2022-09-28T18:38:25;8.90;99.90
53800;DHT22;39708;53.210;6.948;2022-09-28T18:40:51;8.80;99.90
53800;DHT22;39708;53.210;6.948;2022-09-28T18:43:18;8.80;99.90
53800;DHT22;39708;53.210;6.948;2022-09-28T18:45:44;8.80;99.90
53800;DHT22;39708;53.210;6.948;2022-09-28T18:48:10;8.70;99.90
53800;DHT22;39708;53.210;6.948;2022-09-28T18:50:36;8.70;99.90
53800;DHT22;39708;53.210;6.948;2022-09-28T18:53:01;8.70;99.90
53800;DHT22;39708;53.210;6.948;2022-09-28T18:55:38;8.60;99.90
53800;DHT22;39708;53.210;6.948;2022-09-28T18:58:05;8.60;99.90
53800;DHT22;39708;53.210;6.948;2022-09-28T19:00:31;8.60;99.90
53800;DHT22;39708;53.210;6.948;2022-09-28T19:02:56;8.50;99.90
53800;DHT22;39708;53.210;6.948;2022-09-28T19:05:22;9.70;99.90
53800;DHT22;39708;53.210;6.948;2022-09-28T19:07:48;8.30;99.90
53800;DHT22;39708;53.210;6.948;2022-09-28T19:10:14;8.30;99.90
53800;DHT22;39708;53.210;6.948;2022-09-28T19:12:39;8.30;99.90
53800;DHT22;39708;53.210;6.948;2022-09-28T19:15:05;8.50;99.90
53800;DHT22;39708;53.210;6.948;2022-09-28T19:17:32;8.20;99.90
53800;DHT22;39708;53.210;6.948;2022-09-28T19:19:59;7.40;99.90
53800;DHT22;39708;53.210;6.948;2022-09-28T19:22:24;8.10;99.90
53800;DHT22;39708;53.210;6.948;2022-09-28T19:24:50;8.10;99.90
53800;DHT22;39708;53.210;6.948;2022-09-28T19:27:16;8.10;99.90
53800;DHT22;39708;53.210;6.948;2022-09-28T19:29:41;8.10;99.90
53800;DHT22;39708;53.210;6.948;2022-09-28T19:32:07;8.00;99.90
53800;DHT22;39708;53.210;6.948;2022-09-28T19:34:33;8.00;99.90